createdAt,value
2019-03-12T00:00:00.017Z,99.90
2019-03-12T00:02:05.642Z,99.90
2019-03-12T00:04:10.499Z,99.90
2019-03-12T00:06:19.293Z,99.90
2019-03-12T00:08:23.698Z,99.90
2019-03-12T00:10:30.656Z,99.90
2019-03-12T00:12:35.075Z,99.90
2019-03-12T00:14:40.925Z,99.90
2019-03-12T00:16:45.652Z,99.90
2019-03-12T00:23:29.001Z,99.90
2019-03-12T00:25:33.704Z,99.90
2019-03-12T00:27:39.965Z,99.90
2019-03-12T00:29:45.150Z,99.90
2019-03-12T00:31:52.364Z,99.90
2019-03-12T00:33:57.178Z,99.90
2019-03-12T00:36:01.613Z,99.90
2019-03-12T00:38:06.143Z,99.90
2019-03-12T00:40:11.743Z,99.90
2019-03-12T00:42:36.057Z,99.90
2019-03-12T00:44:40.562Z,99.90
2019-03-12T00:46:46.217Z,99.90
2019-03-12T00:48:50.695Z,99.90
2019-03-12T00:50:56.015Z,99.90
2019-03-12T00:53:00.732Z,99.90
2019-03-12T00:55:06.316Z,99.90
2019-03-12T00:57:10.841Z,99.90
2019-03-12T01:01:47.806Z,99.90
2019-03-12T01:06:27.327Z,99.90
2019-03-12T01:08:31.818Z,99.90
2019-03-12T01:13:35.513Z,99.90
2019-03-12T01:15:59.026Z,99.90
2019-03-12T01:18:03.488Z,99.90
2019-03-12T01:20:10.087Z,99.90
2019-03-12T01:22:15.518Z,99.90
2019-03-12T01:24:19.921Z,99.90
2019-03-12T01:26:26.530Z,99.90
2019-03-12T01:28:45.798Z,99.90
2019-03-12T01:30:41.484Z,99.90
2019-03-12T01:32:49.370Z,99.90
2019-03-12T01:35:36.015Z,99.90
2019-03-12T01:37:43.026Z,99.90
2019-03-12T01:39:48.483Z,99.90
2019-03-12T01:42:43.143Z,99.90
2019-03-12T01:44:48.503Z,99.90
2019-03-12T01:46:53.012Z,99.90
2019-03-12T01:48:57.480Z,99.90
2019-03-12T01:51:31.378Z,99.90
2019-03-12T01:53:37.192Z,99.90
2019-03-12T01:55:42.165Z,99.90
2019-03-12T01:57:46.984Z,99.90
2019-03-12T02:00:11.476Z,99.90
2019-03-12T02:02:16.235Z,99.90
2019-03-12T02:04:20.834Z,99.90
2019-03-12T02:06:25.378Z,99.90
2019-03-12T02:08:30.037Z,99.90
2019-03-12T02:10:34.984Z,99.90
2019-03-12T02:12:39.660Z,99.90
2019-03-12T02:15:03.423Z,99.90
2019-03-12T02:17:08.476Z,99.90
2019-03-12T02:19:12.971Z,99.90
2019-03-12T02:21:19.840Z,99.90
2019-03-12T02:26:21.803Z,99.90
2019-03-12T02:28:14.005Z,99.90
2019-03-12T02:30:34.127Z,99.90
2019-03-12T02:35:20.154Z,99.90
2019-03-12T02:40:08.996Z,99.90
2019-03-12T02:42:15.510Z,99.90
2019-03-12T02:44:40.079Z,99.90
2019-03-12T02:46:45.917Z,99.90
2019-03-12T02:48:52.120Z,99.90
2019-03-12T02:51:05.482Z,99.90
2019-03-12T02:55:51.204Z,99.90
2019-03-12T02:57:56.143Z,99.90
2019-03-12T03:00:00.640Z,99.90
2019-03-12T03:02:05.150Z,99.90
2019-03-12T03:04:09.941Z,99.90
2019-03-12T03:08:41.180Z,99.90
2019-03-12T03:10:45.636Z,99.90
2019-03-12T03:12:50.030Z,99.90
2019-03-12T03:14:54.899Z,99.90
2019-03-12T03:17:20.209Z,99.90
2019-03-12T03:19:44.094Z,99.90
2019-03-12T03:21:49.007Z,99.90
2019-03-12T03:23:53.383Z,99.90
2019-03-12T03:25:58.088Z,99.90
2019-03-12T03:28:02.615Z,99.90
2019-03-12T03:30:13.816Z,99.90
2019-03-12T03:32:18.218Z,99.90
2019-03-12T03:34:27.903Z,99.90
2019-03-12T03:36:29.093Z,99.90
2019-03-12T03:38:36.748Z,99.90
2019-03-12T03:40:41.234Z,99.90
2019-03-12T03:42:45.707Z,99.90
2019-03-12T03:44:50.121Z,99.90
2019-03-12T03:46:54.678Z,99.90
2019-03-12T03:51:21.293Z,99.90
2019-03-12T03:53:25.755Z,99.90
2019-03-12T03:55:30.186Z,99.90
2019-03-12T03:57:34.664Z,99.90
2019-03-12T03:59:40.735Z,99.90
2019-03-12T04:01:45.120Z,99.90
2019-03-12T04:03:50.462Z,99.90
2019-03-12T04:05:54.872Z,99.90
2019-03-12T04:07:59.304Z,99.90
2019-03-12T04:10:05.530Z,99.90
2019-03-12T04:12:11.814Z,99.90
2019-03-12T04:14:35.368Z,99.90
2019-03-12T04:16:58.852Z,99.90
2019-03-12T04:19:05.436Z,99.90
2019-03-12T04:21:09.990Z,99.90
2019-03-12T04:23:16.964Z,99.90
2019-03-12T04:25:21.454Z,99.90
2019-03-12T04:27:26.095Z,99.90
2019-03-12T04:29:30.623Z,99.90
2019-03-12T04:31:35.042Z,99.90
2019-03-12T04:37:00.028Z,99.90
2019-03-12T04:39:05.636Z,99.90
2019-03-12T04:41:10.420Z,99.90
2019-03-12T04:43:15.153Z,99.90
2019-03-12T04:45:19.928Z,99.90
2019-03-12T04:47:24.364Z,99.90
2019-03-12T04:49:30.058Z,99.90
2019-03-12T04:51:34.544Z,99.90
2019-03-12T04:53:38.935Z,99.90
2019-03-12T04:55:43.740Z,99.90
2019-03-12T04:57:53.344Z,99.90
2019-03-12T04:59:57.934Z,99.90
2019-03-12T05:02:05.450Z,99.90
2019-03-12T05:04:09.889Z,99.90
2019-03-12T05:06:14.314Z,99.90
2019-03-12T05:08:18.935Z,99.90
2019-03-12T05:10:23.368Z,99.90
2019-03-12T05:12:30.492Z,99.90
2019-03-12T05:14:35.288Z,99.90
2019-03-12T05:16:40.468Z,99.90
2019-03-12T05:19:03.917Z,99.90
2019-03-12T05:21:20.198Z,99.90
2019-03-12T05:23:36.720Z,99.90
2019-03-12T05:25:53.152Z,99.90
2019-03-12T05:28:12.854Z,99.90
2019-03-12T05:30:18.342Z,99.90
2019-03-12T05:32:24.934Z,99.90
2019-03-12T05:34:29.736Z,99.90
2019-03-12T05:36:34.263Z,99.90
2019-03-12T05:38:39.182Z,99.90
2019-03-12T05:40:44.206Z,99.90
2019-03-12T05:42:51.350Z,99.90
2019-03-12T05:44:55.928Z,99.90
2019-03-12T05:47:00.611Z,99.90
2019-03-12T05:49:05.055Z,99.90
2019-03-12T05:56:08.669Z,99.90
2019-03-12T05:58:24.978Z,99.90
2019-03-12T06:00:29.597Z,99.90
2019-03-12T06:04:45.713Z,99.90
2019-03-12T06:07:10.052Z,99.90
2019-03-12T06:09:29.493Z,99.90
2019-03-12T06:11:23.507Z,99.90
2019-03-12T06:13:28.074Z,99.90
2019-03-12T06:15:35.208Z,99.90
2019-03-12T06:17:39.727Z,99.90
2019-03-12T06:20:02.113Z,99.90
2019-03-12T06:22:06.564Z,99.90
2019-03-12T06:24:11.344Z,99.90
2019-03-12T06:26:30.304Z,99.90
2019-03-12T06:28:37.688Z,99.90
2019-03-12T06:31:00.159Z,99.90
2019-03-12T06:33:24.193Z,99.90
2019-03-12T06:35:46.647Z,99.90
2019-03-12T06:37:58.269Z,99.90
2019-03-12T06:40:23.438Z,99.90
2019-03-12T06:42:47.007Z,99.90
2019-03-12T06:45:13.369Z,99.90
2019-03-12T06:47:35.614Z,99.90
2019-03-12T06:50:00.461Z,99.90
2019-03-12T06:52:23.837Z,99.90
2019-03-12T06:55:01.046Z,99.90
2019-03-12T06:57:25.549Z,99.90
2019-03-12T06:59:49.013Z,99.90
2019-03-12T07:10:19.130Z,99.90
2019-03-12T07:13:26.314Z,99.90
2019-03-12T07:18:58.106Z,99.90
2019-03-12T07:21:26.069Z,99.90
2019-03-12T07:23:42.792Z,99.90
2019-03-12T07:26:03.433Z,99.90
2019-03-12T07:28:31.232Z,99.90
2019-03-12T07:33:30.462Z,99.90
2019-03-12T07:35:40.072Z,99.90
2019-03-12T07:38:03.814Z,99.90
2019-03-12T07:40:20.060Z,99.90
2019-03-12T07:42:55.905Z,99.90
2019-03-12T07:45:19.665Z,99.90
2019-03-12T07:47:36.291Z,99.90
2019-03-12T07:50:08.726Z,99.90
2019-03-12T07:52:33.673Z,99.90
2019-03-12T07:55:06.894Z,99.90
2019-03-12T07:57:29.538Z,99.90
2019-03-12T07:59:53.539Z,99.90
2019-03-12T08:07:51.345Z,99.90
2019-03-12T08:12:45.208Z,99.90
2019-03-12T08:15:27.580Z,99.90
2019-03-12T08:17:52.139Z,99.90
2019-03-12T08:22:40.333Z,99.90
2019-03-12T08:25:10.129Z,99.90
2019-03-12T08:27:32.563Z,99.90
2019-03-12T08:29:44.022Z,99.90
2019-03-12T08:32:02.751Z,99.90
2019-03-12T08:37:02.112Z,99.90
2019-03-12T08:39:16.897Z,99.90
2019-03-12T08:41:39.404Z,99.90
2019-03-12T08:44:04.748Z,99.90
2019-03-12T08:46:23.185Z,99.90
2019-03-12T08:48:45.480Z,99.90
2019-03-12T08:50:59.028Z,99.90
2019-03-12T08:53:44.632Z,99.90
2019-03-12T08:56:09.160Z,99.90
2019-03-12T08:58:39.421Z,99.90
2019-03-12T09:03:47.340Z,99.90
2019-03-12T09:06:13.138Z,99.90
2019-03-12T09:08:45.918Z,99.90
2019-03-12T09:13:52.691Z,99.90
2019-03-12T09:16:19.176Z,99.90
2019-03-12T09:19:02.070Z,99.90
2019-03-12T09:21:28.051Z,99.90
2019-03-12T09:24:03.387Z,99.90
2019-03-12T09:29:05.675Z,99.90
2019-03-12T09:34:12.212Z,99.90
2019-03-12T09:36:35.643Z,99.90
2019-03-12T09:44:36.626Z,99.90
2019-03-12T09:46:54.149Z,99.90
2019-03-12T09:49:18.080Z,99.90
2019-03-12T09:54:14.550Z,99.90
2019-03-12T09:56:38.343Z,99.90
2019-03-12T09:59:03.272Z,99.90
2019-03-12T10:01:30.190Z,99.90
2019-03-12T10:03:46.233Z,99.90
2019-03-12T10:06:13.361Z,99.90
2019-03-12T10:08:45.664Z,99.90
2019-03-12T10:11:20.376Z,99.90
2019-03-12T10:13:47.053Z,99.90
2019-03-12T10:16:11.103Z,99.90
2019-03-12T10:18:24.053Z,99.90
2019-03-12T10:21:06.861Z,99.90
2019-03-12T10:23:30.452Z,99.90
2019-03-12T10:25:50.320Z,99.50
2019-03-12T10:28:02.934Z,99.70
2019-03-12T10:30:30.647Z,98.90
2019-03-12T10:33:13.214Z,98.60
2019-03-12T10:35:36.625Z,98.00
2019-03-12T10:38:01.938Z,97.80
2019-03-12T10:40:14.108Z,97.80
2019-03-12T10:45:09.562Z,96.80
2019-03-12T10:47:18.891Z,96.80
2019-03-12T10:49:36.961Z,97.00
2019-03-12T10:51:36.473Z,96.80
2019-03-12T10:53:40.932Z,97.00
2019-03-12T10:55:46.651Z,97.30
2019-03-12T10:57:51.304Z,97.50
2019-03-12T10:59:56.691Z,96.80
2019-03-12T11:02:02.414Z,96.30
2019-03-12T11:04:06.917Z,96.10
2019-03-12T11:06:12.063Z,96.20
2019-03-12T11:08:35.625Z,96.00
2019-03-12T11:10:40.356Z,96.20
2019-03-12T11:12:47.831Z,95.50
2019-03-12T11:14:52.699Z,95.50
2019-03-12T11:16:58.385Z,95.50
2019-03-12T11:19:03.932Z,95.20
2019-03-12T11:23:34.776Z,94.60
2019-03-12T11:25:41.808Z,95.10
2019-03-12T11:27:48.487Z,95.50
2019-03-12T11:29:53.265Z,95.20
2019-03-12T11:32:16.856Z,94.40
2019-03-12T11:34:22.685Z,94.00
2019-03-12T11:36:28.083Z,94.20
2019-03-12T11:40:58.676Z,95.30
2019-03-12T11:46:02.205Z,94.30
2019-03-12T11:48:10.324Z,93.90
2019-03-12T11:50:18.760Z,93.40
2019-03-12T11:52:24.095Z,94.10
2019-03-12T11:54:51.338Z,94.30
2019-03-12T11:57:08.230Z,93.80
2019-03-12T11:59:13.421Z,93.70
2019-03-12T12:01:29.685Z,93.30
2019-03-12T12:03:46.158Z,93.30
2019-03-12T12:05:50.899Z,93.90
2019-03-12T12:07:55.870Z,93.70
2019-03-12T12:10:02.158Z,93.80
2019-03-12T12:12:06.941Z,93.20
2019-03-12T12:14:11.437Z,93.30
2019-03-12T12:16:18.034Z,93.60
2019-03-12T12:18:22.707Z,93.70
2019-03-12T12:20:30.091Z,93.70
2019-03-12T12:22:34.583Z,93.10
2019-03-12T12:24:41.208Z,92.70
2019-03-12T12:26:47.966Z,92.80
2019-03-12T12:28:56.004Z,93.40
2019-03-12T12:31:01.351Z,93.00
2019-03-12T12:33:05.958Z,92.70
2019-03-12T12:35:10.804Z,92.70
2019-03-12T12:37:17.372Z,92.60
2019-03-12T12:39:28.166Z,91.80
2019-03-12T12:41:37.595Z,92.20
2019-03-12T12:43:42.103Z,92.30
2019-03-12T12:45:46.681Z,91.80
2019-03-12T12:48:10.426Z,91.50
2019-03-12T13:01:36.360Z,90.80
2019-03-12T13:03:52.712Z,90.90
2019-03-12T13:06:09.330Z,90.10
2019-03-12T13:08:17.391Z,89.10
2019-03-12T13:10:23.501Z,88.40
2019-03-12T13:12:28.362Z,88.00
2019-03-12T13:14:41.535Z,88.80
2019-03-12T13:16:52.259Z,89.00
2019-03-12T13:18:57.918Z,90.20
2019-03-12T13:21:02.745Z,90.30
2019-03-12T13:23:07.238Z,88.80
2019-03-12T13:25:12.119Z,88.40
2019-03-12T13:27:24.921Z,88.20
2019-03-12T13:29:29.687Z,88.20
2019-03-12T13:31:34.434Z,87.80
2019-03-12T13:33:39.157Z,88.20
2019-03-12T13:38:48.430Z,88.20
2019-03-12T13:40:53.915Z,87.20
2019-03-12T13:42:59.394Z,86.40
2019-03-12T13:45:04.473Z,87.30
2019-03-12T13:47:09.177Z,85.60
2019-03-12T13:49:33.019Z,85.90
2019-03-12T13:51:38.706Z,88.80
2019-03-12T13:53:43.403Z,87.90
2019-03-12T13:55:52.782Z,88.50
2019-03-12T13:57:57.596Z,88.20
2019-03-12T14:00:02.529Z,88.50
2019-03-12T14:02:26.050Z,89.20
2019-03-12T14:04:32.124Z,88.20
2019-03-12T14:09:02.689Z,87.20
2019-03-12T14:11:07.712Z,87.50
2019-03-12T14:13:14.971Z,87.20
2019-03-12T14:15:22.548Z,87.40
2019-03-12T14:17:27.394Z,87.30
2019-03-12T14:19:32.338Z,88.20
2019-03-12T14:21:49.117Z,88.40
2019-03-12T14:26:08.506Z,86.70
2019-03-12T14:28:19.450Z,87.40
2019-03-12T14:30:43.042Z,87.70
2019-03-12T14:32:49.035Z,87.20
2019-03-12T14:34:55.505Z,87.50
2019-03-12T14:37:00.788Z,87.40
2019-03-12T14:39:07.480Z,87.30
2019-03-12T14:41:34.352Z,86.60
2019-03-12T14:43:38.981Z,84.80
2019-03-12T14:45:52.762Z,86.40
2019-03-12T14:47:59.355Z,85.70
2019-03-12T14:50:06.734Z,86.80
2019-03-12T14:52:25.620Z,86.40
2019-03-12T14:54:30.537Z,87.40
2019-03-12T14:56:54.071Z,87.80
2019-03-12T14:58:59.604Z,88.20
2019-03-12T15:03:41.955Z,86.70
2019-03-12T15:05:47.669Z,86.70
2019-03-12T15:07:55.345Z,86.10
2019-03-12T15:10:01.035Z,85.90
2019-03-12T15:12:07.576Z,86.50
2019-03-12T15:14:14.565Z,86.50
2019-03-12T15:16:20.152Z,86.60
2019-03-12T15:18:25.513Z,86.50
2019-03-12T15:20:34.459Z,86.90
2019-03-12T15:23:00.073Z,85.50
2019-03-12T15:25:06.368Z,86.50
2019-03-12T15:27:11.288Z,86.00
2019-03-12T15:29:16.222Z,87.60
2019-03-12T15:31:21.963Z,87.80
2019-03-12T15:33:26.865Z,87.20
2019-03-12T15:35:32.139Z,85.50
2019-03-12T15:37:38.036Z,85.40
2019-03-12T15:39:42.977Z,86.20
2019-03-12T15:41:48.082Z,87.10
2019-03-12T15:43:53.862Z,86.30
2019-03-12T15:45:58.469Z,84.70
2019-03-12T15:48:04.615Z,85.50
2019-03-12T15:50:10.002Z,85.20
2019-03-12T15:52:16.436Z,84.80
2019-03-12T15:54:22.032Z,85.40
2019-03-12T15:56:30.923Z,84.10
2019-03-12T15:58:37.549Z,84.00
2019-03-12T16:00:44.512Z,83.20
2019-03-12T16:02:49.077Z,83.80
2019-03-12T16:04:55.727Z,82.80
2019-03-12T16:07:04.471Z,81.70
2019-03-12T16:09:12.891Z,83.20
2019-03-12T16:11:17.816Z,82.50
2019-03-12T16:13:25.529Z,82.80
2019-03-12T16:15:30.679Z,82.20
2019-03-12T16:17:37.010Z,81.40
2019-03-12T16:19:43.450Z,81.40
2019-03-12T16:21:48.182Z,81.20
2019-03-12T16:26:17.910Z,82.40
2019-03-12T16:28:23.018Z,80.70
2019-03-12T16:30:30.889Z,80.00
2019-03-12T16:32:35.627Z,80.50
2019-03-12T16:34:40.235Z,80.40
2019-03-12T16:36:44.810Z,80.60
2019-03-12T16:38:49.660Z,81.60
2019-03-12T16:40:54.177Z,79.80
2019-03-12T16:42:58.775Z,80.10
2019-03-12T16:45:03.690Z,78.80
2019-03-12T16:47:09.685Z,78.40
2019-03-12T16:49:14.918Z,78.40
2019-03-12T16:51:19.436Z,77.10
2019-03-12T16:53:24.163Z,77.00
2019-03-12T16:55:29.181Z,78.10
2019-03-12T16:57:34.057Z,76.60
2019-03-12T16:59:57.898Z,76.80
2019-03-12T17:02:03.287Z,76.30
2019-03-12T17:06:27.234Z,75.40
2019-03-12T17:08:33.676Z,76.80
2019-03-12T17:10:38.499Z,77.50
2019-03-12T17:12:43.593Z,76.00
2019-03-12T17:14:48.880Z,77.80
2019-03-12T17:16:55.138Z,77.90
2019-03-12T17:19:00.782Z,75.40
2019-03-12T17:21:05.837Z,77.10
2019-03-12T17:23:10.584Z,76.60
2019-03-12T17:25:15.485Z,75.40
2019-03-12T17:27:24.038Z,76.80
2019-03-12T17:29:34.546Z,75.30
2019-03-12T17:31:39.340Z,76.30
2019-03-12T17:33:44.360Z,76.80
2019-03-12T17:35:51.896Z,76.80
2019-03-12T17:38:02.645Z,77.10
2019-03-12T17:40:12.333Z,76.70
2019-03-12T17:44:45.063Z,78.00
2019-03-12T17:46:51.271Z,78.00
2019-03-12T17:48:57.084Z,79.00
2019-03-12T17:51:02.010Z,77.70
2019-03-12T17:53:25.658Z,78.10
2019-03-12T17:55:31.776Z,78.50
2019-03-12T17:57:55.772Z,78.50
2019-03-12T18:00:20.068Z,77.60
2019-03-12T18:02:41.570Z,77.40
2019-03-12T18:04:36.426Z,78.70
2019-03-12T18:06:55.096Z,78.50
2019-03-12T18:11:39.210Z,78.80
2019-03-12T18:13:46.722Z,78.00
2019-03-12T18:16:22.580Z,76.50
2019-03-12T18:18:27.481Z,76.20
2019-03-12T18:23:15.079Z,76.50
2019-03-12T18:25:22.210Z,77.50
2019-03-12T18:32:33.830Z,77.10
2019-03-12T18:34:39.535Z,77.50
2019-03-12T18:37:08.759Z,78.10
2019-03-12T18:39:27.543Z,78.80
2019-03-12T18:41:33.083Z,78.20
2019-03-12T18:43:37.781Z,79.00
2019-03-12T18:45:42.618Z,79.00
2019-03-12T18:47:47.442Z,78.00
2019-03-12T18:49:54.965Z,78.00
2019-03-12T18:52:01.923Z,76.40
2019-03-12T18:54:06.534Z,76.80
2019-03-12T18:56:12.326Z,77.70
2019-03-12T18:58:16.974Z,77.90
2019-03-12T19:00:35.920Z,77.10
2019-03-12T19:02:28.513Z,77.80
2019-03-12T19:04:33.443Z,77.00
2019-03-12T19:06:38.064Z,76.80
2019-03-12T19:08:47.643Z,76.40
2019-03-12T19:13:14.762Z,75.90
2019-03-12T19:15:19.285Z,77.80
2019-03-12T19:17:26.844Z,78.50
2019-03-12T19:19:34.576Z,82.50
2019-03-12T19:21:58.192Z,88.30
2019-03-12T19:24:16.409Z,90.70
2019-03-12T19:26:21.347Z,91.40
2019-03-12T19:28:55.719Z,90.70
2019-03-12T19:33:36.337Z,94.40
2019-03-12T19:35:58.570Z,95.00
2019-03-12T19:41:00.746Z,95.10
2019-03-12T19:43:07.211Z,95.70
2019-03-12T19:45:14.248Z,96.90
2019-03-12T19:47:52.066Z,97.70
2019-03-12T19:49:47.256Z,98.30
2019-03-12T19:51:54.437Z,98.80
2019-03-12T19:59:00.032Z,99.20
2019-03-12T20:01:36.456Z,99.50
2019-03-12T20:04:03.657Z,99.80
2019-03-12T20:06:18.095Z,99.90
2019-03-12T20:09:00.197Z,99.90
2019-03-12T20:11:44.840Z,99.90
2019-03-12T20:14:03.236Z,99.90
2019-03-12T20:16:23.158Z,99.90
2019-03-12T20:19:11.245Z,99.90
2019-03-12T20:21:56.485Z,99.90
2019-03-12T20:37:58.869Z,99.90
2019-03-12T20:40:44.028Z,99.90
2019-03-12T20:50:10.699Z,99.90
2019-03-12T20:55:47.747Z,99.90
2019-03-12T21:01:29.609Z,99.90
2019-03-12T21:04:17.175Z,99.90
2019-03-12T21:09:40.475Z,99.90
2019-03-12T21:14:44.800Z,99.90
2019-03-12T21:17:36.039Z,99.90
2019-03-12T21:20:17.447Z,99.90
2019-03-12T21:23:01.054Z,99.90
2019-03-12T21:25:45.901Z,99.90
2019-03-12T21:28:26.991Z,99.90
2019-03-12T21:30:38.568Z,99.90
2019-03-12T21:32:44.340Z,99.90
2019-03-12T21:34:53.350Z,99.90
2019-03-12T21:37:11.997Z,99.90
2019-03-12T21:39:28.388Z,99.90
2019-03-12T21:41:41.041Z,99.90
2019-03-12T21:43:49.487Z,99.90
2019-03-12T21:46:08.379Z,99.90
2019-03-12T21:56:42.322Z,99.90
2019-03-12T21:59:14.170Z,99.90
2019-03-12T22:01:44.460Z,99.90
2019-03-12T22:03:55.677Z,99.90
2019-03-12T22:25:01.441Z,99.90
2019-03-12T22:27:06.681Z,99.90
2019-03-12T22:29:20.390Z,99.90
2019-03-12T22:31:28.999Z,99.90
2019-03-12T22:34:05.154Z,99.90
2019-03-12T22:36:46.136Z,99.90
2019-03-12T22:41:30.685Z,99.90
2019-03-12T22:44:17.613Z,99.90
2019-03-12T22:46:47.143Z,99.90
2019-03-12T22:49:02.446Z,99.90
2019-03-12T22:51:32.403Z,99.90
2019-03-12T22:53:43.387Z,99.90
2019-03-12T22:56:07.820Z,99.90
2019-03-12T22:58:24.338Z,99.90
2019-03-12T23:03:26.848Z,99.90
2019-03-12T23:06:08.856Z,99.90
2019-03-12T23:10:57.799Z,99.90
2019-03-12T23:13:43.677Z,99.90
2019-03-12T23:15:22.667Z,99.90
2019-03-12T23:17:29.077Z,99.90
2019-03-12T23:19:40.519Z,99.90
2019-03-12T23:21:46.071Z,99.90
2019-03-12T23:24:11.188Z,99.90
2019-03-12T23:26:16.161Z,99.90
2019-03-12T23:28:21.015Z,99.90
2019-03-12T23:30:28.884Z,99.90
2019-03-12T23:34:57.563Z,99.90
2019-03-12T23:37:02.346Z,99.90
2019-03-12T23:39:10.018Z,99.90
2019-03-12T23:41:33.737Z,99.90
2019-03-12T23:43:40.307Z,99.90
2019-03-12T23:45:46.327Z,99.90
2019-03-12T23:47:51.298Z,99.90
2019-03-12T23:50:06.870Z,99.90
2019-03-12T23:52:11.829Z,99.90
2019-03-12T23:54:16.907Z,99.90
2019-03-12T23:56:41.778Z,99.90
2019-03-12T23:58:46.731Z,99.90
